Time;durP1;ratioP1;P1;durP2;ratioP2;P2;SDS_P1;SDS_P2;PMS_P1;PMS_P2;Temp;Humidity;BMP_temperature;BMP_pressure;BME280_temperature;BME280_humidity;BME280_pressure;Samples;Min_cycle;Max_cycle;Signal;HPM_P1;HPM_P2
2022/08/08 00:04:23;;;;;;;0.88;0.25;;;;;;;13.63;100.00;102480.31;10540438;28;20052;-77
2022/08/08 00:09:52;;;;;;;0.10;0.10;;;;;;;13.53;100.00;102476.50;10541207;28;20024;-77
2022/08/08 00:15:19;;;;;;;0.30;0.20;;;;;;;13.56;100.00;102473.16;10522963;28;20505;-77
2022/08/08 00:20:45;;;;;;;0.40;0.20;;;;;;;13.47;100.00;102473.69;10541595;28;20126;-76
2022/08/08 00:25:54;;;;;;;0.40;0.13;;;;;;;13.15;100.00;102483.59;10540627;28;20040;-77
2022/08/08 00:30:58;;;;;;;0.85;0.40;;;;;;;13.09;100.00;102486.84;10536034;28;20048;-76
2022/08/08 00:36:29;;;;;;;0.35;0.20;;;;;;;12.99;100.00;102488.13;10540788;28;20035;-75
2022/08/08 00:41:45;;;;;;;0.05;0.00;;;;;;;12.94;100.00;102484.47;10522199;28;20048;-77
2022/08/08 00:47:44;;;;;;;0.10;0.10;;;;;;;12.67;100.00;102482.50;10528392;28;20113;-77
2022/08/08 00:53:29;;;;;;;0.10;0.10;;;;;;;12.52;100.00;102476.69;10504226;28;20044;-77
2022/08/08 00:59:11;;;;;;;0.38;0.35;;;;;;;12.56;100.00;102481.16;10510956;28;20044;-76
2022/08/08 01:04:34;;;;;;;0.63;0.40;;;;;;;12.67;100.00;102482.50;10543421;28;20044;-76
2022/08/08 01:10:04;;;;;;;0.38;0.22;;;;;;;12.42;100.00;102470.25;10519604;28;20047;-76
2022/08/08 01:15:38;;;;;;;0.20;0.20;;;;;;;12.08;100.00;102465.28;10545367;28;20067;-77
2022/08/08 01:21:16;;;;;;;0.63;0.47;;;;;;;12.20;100.00;102465.81;10528538;28;20483;-77
2022/08/08 01:27:21;;;;;;;0.65;0.22;;;;;;;11.78;100.00;102461.34;10513909;28;20032;-76
2022/08/08 01:33:01;;;;;;;0.25;0.25;;;;;;;11.87;100.00;102481.56;10510508;28;20040;-76
2022/08/08 01:38:44;;;;;;;0.47;0.40;;;;;;;12.00;100.00;102483.00;10520881;28;20077;-75
2022/08/08 01:44:15;;;;;;;0.52;0.20;;;;;;;11.97;100.00;102486.34;10481240;28;20048;-76
2022/08/08 01:50:05;;;;;;;0.20;0.20;;;;;;;12.09;100.00;102529.94;10520180;28;20043;-76
2022/08/08 01:55:33;;;;;;;0.00;0.00;;;;;;;11.97;100.00;102516.47;10490435;28;20067;-76
2022/08/08 02:01:33;;;;;;;1.00;0.47;;;;;;;11.55;100.00;102501.56;10528032;28;20036;-77
2022/08/08 02:07:11;;;;;;;0.10;0.10;;;;;;;11.59;100.00;102508.63;10525394;28;20459;-76
2022/08/08 02:12:31;;;;;;;0.28;0.28;;;;;;;11.39;100.00;102499.97;10530348;28;20494;-75
2022/08/08 02:18:02;;;;;;;2.00;0.47;;;;;;;11.17;100.00;102493.75;10535196;28;20044;-76
2022/08/08 02:23:43;;;;;;;0.22;0.22;;;;;;;11.37;100.00;102497.28;10525427;28;20048;-75
2022/08/08 02:28:58;;;;;;;0.20;0.10;;;;;;;11.32;100.00;102496.19;10521427;28;20050;-75
2022/08/08 02:34:56;;;;;;;0.28;0.25;;;;;;;11.15;100.00;102502.22;10534732;28;20072;-76
2022/08/08 02:40:27;;;;;;;0.20;0.10;;;;;;;11.25;100.00;102513.06;10538289;28;20044;-75
2022/08/08 02:45:54;;;;;;;0.70;0.40;;;;;;;10.91;100.00;102505.34;10547886;28;20491;-75
2022/08/08 02:51:24;;;;;;;0.25;0.10;;;;;;;11.00;100.00;102500.66;10533712;28;20406;-76
2022/08/08 02:57:13;;;;;;;1.05;0.60;;;;;;;11.01;100.00;102515.31;10529745;28;20487;-76
2022/08/08 03:02:36;;;;;;;0.25;0.20;;;;;;;11.17;100.00;102516.09;10526098;28;20051;-76
2022/08/08 03:08:10;;;;;;;0.43;0.28;;;;;;;10.90;100.00;102504.47;10549305;28;20495;-75
2022/08/08 03:13:30;;;;;;;0.57;0.20;;;;;;;10.75;100.00;102508.84;10548882;28;20093;-75
2022/08/08 03:18:52;;;;;;;0.22;0.22;;;;;;;10.65;100.00;102525.53;10528491;28;20040;-76
2022/08/08 03:23:55;;;;;;;0.20;0.20;;;;;;;10.92;100.00;102528.66;10525569;28;20048;-76
2022/08/08 03:29:07;;;;;;;0.10;0.10;;;;;;;10.50;100.00;102527.31;10510443;28;20097;-76
2022/08/08 03:34:26;;;;;;;0.90;0.47;;;;;;;10.63;100.00;102514.25;10544841;28;20459;-76
2022/08/08 03:39:28;;;;;;;0.30;0.00;;;;;;;10.37;100.00;102516.38;10537950;28;20044;-76
2022/08/08 03:44:34;;;;;;;0.30;0.20;;;;;;;10.48;100.00;102510.06;10552097;28;20487;-76
2022/08/08 03:49:40;;;;;;;0.23;0.20;;;;;;;10.73;100.00;102520.75;10524358;28;20078;-76
2022/08/08 03:55:14;;;;;;;0.13;0.13;;;;;;;10.66;100.00;102522.16;10513620;28;20043;-75
2022/08/08 04:00:38;;;;;;;0.30;0.28;;;;;;;10.42;100.00;102524.34;10523524;28;20032;-76
2022/08/08 04:06:05;;;;;;;0.13;0.13;;;;;;;10.85;100.00;102538.56;10537259;28;20032;-75
2022/08/08 04:11:08;;;;;;;0.88;0.47;;;;;;;10.83;100.00;102535.03;10528530;28;20138;-75
2022/08/08 04:16:19;;;;;;;;;;;;;;;10.21;100.00;102554.97;10516428;28;20537;-76
2022/08/08 04:21:39;;;;;;;5.63;0.93;;;;;;;10.30;100.00;102612.16;10557047;28;19924;-76
2022/08/08 04:26:46;;;;;;;0.63;0.38;;;;;;;10.54;100.00;102627.16;10530970;28;20052;-76
2022/08/08 04:32:01;;;;;;;0.55;0.40;;;;;;;10.70;100.00;102634.91;10526172;28;20092;-76
2022/08/08 04:37:05;;;;;;;0.47;0.40;;;;;;;10.91;100.00;102644.59;10495320;28;20102;-76
2022/08/08 04:42:08;;;;;;;0.63;0.63;;;;;;;11.22;100.00;102656.50;10518067;28;20048;-76
2022/08/08 04:47:21;;;;;;;0.75;0.40;;;;;;;11.42;100.00;102668.75;10536424;28;20530;-76
2022/08/08 04:52:30;;;;;;;0.50;0.38;;;;;;;11.67;100.00;102677.69;10522824;28;20044;-76
2022/08/08 04:57:43;;;;;;;0.68;0.63;;;;;;;11.88;100.00;102671.81;10517604;28;20531;-76
2022/08/08 05:02:45;;;;;;;0.88;0.82;;;;;;;12.01;100.00;102665.59;10519558;28;20126;-75
2022/08/08 05:07:55;;;;;;;0.82;0.60;;;;;;;12.29;100.00;102672.06;10522801;28;20475;-76
2022/08/08 05:12:57;;;;;;;1.30;0.80;;;;;;;12.47;100.00;102654.84;10519202;28;20086;-76
2022/08/08 05:18:05;;;;;;;0.30;0.28;;;;;;;12.70;100.00;102648.13;10521232;28;20044;-77
2022/08/08 05:23:08;;;;;;;0.35;0.35;;;;;;;12.81;100.00;102651.19;10520647;28;20113;-76
2022/08/08 05:28:10;;;;;;;0.82;0.35;;;;;;;13.18;100.00;102667.47;10518833;28;20040;-76
2022/08/08 05:33:16;;;;;;;0.47;0.45;;;;;;;13.31;100.00;102681.84;10521019;28;20044;-76
2022/08/08 05:38:21;;;;;;;3.05;0.98;;;;;;;13.62;100.00;102690.94;10513578;28;20506;-76
2022/08/08 05:43:42;;;;;;;;;;;;;;;13.86;100.00;102698.84;10545886;28;20052;-77
2022/08/08 05:49:04;;;;;;;1.10;0.73;;;;;;;13.98;100.00;102698.47;10528329;28;20347;-76
2022/08/08 05:54:13;;;;;;;2.47;0.80;;;;;;;14.18;100.00;102683.72;10522540;28;20801;-76
2022/08/08 05:59:37;;;;;;;1.60;0.60;;;;;;;14.46;100.00;102683.88;10538170;28;20495;-76
2022/08/08 06:05:16;;;;;;;0.88;0.57;;;;;;;14.60;100.00;102678.41;10517429;28;20040;-76
2022/08/08 06:10:38;;;;;;;1.10;0.90;;;;;;;14.84;100.00;102655.94;10508578;28;20039;-76
2022/08/08 06:15:47;;;;;;;1.10;0.68;;;;;;;15.07;100.00;102644.66;10515627;28;20138;-77
2022/08/08 06:20:59;;;;;;;0.75;0.30;;;;;;;15.43;100.00;102638.09;10526805;28;20044;-76
2022/08/08 06:26:29;;;;;;;0.65;0.60;;;;;;;15.77;100.00;102638.31;10505876;28;20102;-76
2022/08/08 06:31:59;;;;;;;1.85;0.60;;;;;;;15.91;100.00;102620.56;10522055;28;20488;-77
2022/08/08 06:37:22;;;;;;;1.08;0.45;;;;;;;16.22;100.00;102606.81;10525193;28;20078;-77
2022/08/08 06:42:37;;;;;;;0.73;0.45;;;;;;;16.43;100.00;102601.34;10514496;28;20097;-77
2022/08/08 06:47:40;;;;;;;0.20;0.20;;;;;;;16.64;100.00;102606.28;10518652;28;20411;-76
2022/08/08 06:53:03;;;;;;;0.80;0.22;;;;;;;16.72;100.00;102593.47;10538045;28;20044;-76
2022/08/08 06:58:22;;;;;;;0.93;0.30;;;;;;;17.11;100.00;102586.72;10549234;28;20558;-77
2022/08/08 07:03:51;;;;;;;0.47;0.22;;;;;;;17.52;100.00;102586.00;10510685;28;20135;-77
2022/08/08 07:09:47;;;;;;;1.83;1.17;;;;;;;17.89;100.00;102572.06;10508377;28;20040;-77
2022/08/08 07:15:11;;;;;;;1.35;0.30;;;;;;;18.73;100.00;102549.44;10532222;28;20101;-77
2022/08/08 07:20:37;;;;;;;0.30;0.15;;;;;;;19.02;100.00;102558.66;10507824;28;20728;-77
2022/08/08 07:25:58;;;;;;;0.30;0.20;;;;;;;19.41;100.00;102558.41;10518298;28;20044;-77
2022/08/08 07:31:03;;;;;;;1.27;0.47;;;;;;;19.61;100.00;102553.50;10524389;28;20094;-76
2022/08/08 07:36:09;;;;;;;0.47;0.30;;;;;;;20.43;100.00;102549.34;10506965;28;20048;-77
2022/08/08 07:41:18;;;;;;;0.05;0.05;;;;;;;20.47;100.00;102540.66;10512354;28;20050;-77
2022/08/08 07:46:30;;;;;;;0.63;0.30;;;;;;;20.20;100.00;102557.81;10514723;28;20044;-77
2022/08/08 07:51:41;;;;;;;0.30;0.20;;;;;;;20.31;100.00;102552.72;10514067;28;20505;-78
2022/08/08 07:57:25;;;;;;;0.00;0.00;;;;;;;20.81;100.00;102564.63;10500503;28;20087;-76
2022/08/08 08:02:44;;;;;;;1.70;0.65;;;;;;;21.48;100.00;102552.03;10512769;28;20814;-76
2022/08/08 08:07:54;;;;;;;0.63;0.40;;;;;;;20.98;100.00;102558.63;10509814;28;20063;-76
2022/08/08 08:13:32;;;;;;;0.22;0.22;;;;;;;21.48;100.00;102568.63;10506814;28;20047;-77
2022/08/08 08:26:24;;;;;;;0.00;0.00;;;;;;;21.80;95.67;102575.00;10531828;28;20478;-76
2022/08/08 08:31:28;;;;;;;1.08;0.90;;;;;;;22.11;100.00;102564.66;10509006;28;20465;-76
2022/08/08 08:36:43;;;;;;;0.00;0.00;;;;;;;22.31;93.79;102556.81;10496544;28;20048;-77
2022/08/08 08:41:57;;;;;;;0.20;0.15;;;;;;;23.01;88.68;102560.50;10517142;28;20097;-77
2022/08/08 08:53:58;;;;;;;3.03;0.40;;;;;;;22.68;80.14;102562.19;10535600;28;20040;-77
2022/08/08 08:59:10;;;;;;;2.67;0.47;;;;;;;23.20;86.48;102556.13;10523915;28;20040;-77
2022/08/08 09:04:25;;;;;;;0.00;0.00;;;;;;;22.77;84.73;102564.84;10524760;28;20406;-76
2022/08/08 09:09:53;;;;;;;0.47;0.47;;;;;;;23.59;78.79;102566.59;10519449;28;20105;-78
2022/08/08 09:15:24;;;;;;;0.00;0.00;;;;;;;23.91;75.94;102555.09;10506535;28;20134;-77
2022/08/08 09:20:45;;;;;;;2.10;0.38;;;;;;;23.95;71.17;102562.13;10500798;28;20057;-78
2022/08/08 09:26:25;;;;;;;0.00;0.00;;;;;;;23.89;70.07;102562.13;10519612;28;20441;-79
2022/08/08 09:31:51;;;;;;;0.10;0.10;;;;;;;23.95;71.73;102569.16;10496995;28;20495;-77
2022/08/08 09:37:04;;;;;;;0.00;0.00;;;;;;;24.18;68.79;102569.06;10506235;28;20055;-78
2022/08/08 09:42:32;;;;;;;0.22;0.17;;;;;;;24.42;68.90;102559.28;10519920;28;20032;-78
2022/08/08 09:47:45;;;;;;;0.13;0.10;;;;;;;24.66;75.46;102551.25;10536827;28;20055;-77
2022/08/08 09:53:11;;;;;;;0.00;0.00;;;;;;;24.11;68.84;102564.69;10522713;28;20125;-77
2022/08/08 09:58:38;;;;;;;0.10;0.10;;;;;;;25.13;69.50;102556.16;10512022;28;20479;-76
2022/08/08 10:03:49;;;;;;;0.08;0.08;;;;;;;24.81;74.62;102554.66;10527053;28;20040;-77
2022/08/08 10:08:59;;;;;;;0.10;0.10;;;;;;;23.06;78.31;102563.13;10530767;28;20039;-77
2022/08/08 10:14:03;;;;;;;0.10;0.10;;;;;;;23.33;75.89;102557.00;10521000;28;20072;-78
2022/08/08 10:19:09;;;;;;;0.00;0.00;;;;;;;22.77;78.26;102558.72;10486493;28;20064;-78
2022/08/08 10:24:11;;;;;;;0.28;0.10;;;;;;;22.74;85.39;102556.97;10507298;28;20518;-77
2022/08/08 10:29:49;;;;;;;0.00;0.00;;;;;;;23.97;80.60;102555.09;10516829;28;20139;-77
2022/08/08 10:35:07;;;;;;;0.00;0.00;;;;;;;24.21;78.21;102553.25;10502203;28;20060;-78
2022/08/08 10:40:15;;;;;;;0.05;0.05;;;;;;;24.37;71.14;102565.47;10501138;28;20062;-76
2022/08/08 10:45:26;;;;;;;0.13;0.13;;;;;;;23.95;77.77;102556.84;10536774;28;20060;-76
2022/08/08 10:50:37;;;;;;;0.00;0.00;;;;;;;23.87;76.24;102566.50;10516420;28;20044;-77
2022/08/08 10:55:56;;;;;;;0.20;0.10;;;;;;;23.62;83.71;102548.19;10534782;28;20043;-76
2022/08/08 11:01:07;;;;;;;0.38;0.00;;;;;;;23.29;74.32;102555.25;10516349;28;20471;-76
2022/08/08 11:06:14;;;;;;;0.00;0.00;;;;;;;23.40;82.66;102547.34;10526115;28;20048;-77
2022/08/08 11:11:18;;;;;;;0.00;0.00;;;;;;;23.61;77.33;102559.59;10519081;28;20042;-77
2022/08/08 11:16:41;;;;;;;0.10;0.10;;;;;;;25.01;71.55;102551.88;10517071;28;20569;-77
2022/08/08 11:21:50;;;;;;;0.10;0.10;;;;;;;24.19;73.71;102550.63;10526422;28;20032;-78
2022/08/08 11:27:01;;;;;;;;;;;;;;;24.04;69.88;102553.34;10508114;28;20123;-77
2022/08/08 11:32:26;;;;;;;0.65;0.25;;;;;;;24.65;75.90;102532.75;10512012;28;19925;-77
2022/08/08 11:37:33;;;;;;;0.35;0.20;;;;;;;24.57;78.63;102535.47;10517323;28;20040;-78
2022/08/08 11:42:57;;;;;;;0.05;0.05;;;;;;;24.47;76.02;102533.78;10513559;28;20443;-78
2022/08/08 11:47:59;;;;;;;0.52;0.35;;;;;;;23.87;74.79;102537.56;10510881;28;20059;-78
2022/08/08 11:53:08;;;;;;;0.00;0.00;;;;;;;23.81;76.51;102533.22;10516975;28;20085;-78
2022/08/08 11:58:15;;;;;;;0.03;0.03;;;;;;;23.06;79.65;102529.81;10531579;28;20180;-78
2022/08/08 12:03:32;;;;;;;0.00;0.00;;;;;;;23.16;78.67;102527.19;10519373;28;20043;-77
2022/08/08 12:08:36;;;;;;;0.00;0.00;;;;;;;23.55;76.68;102526.25;10530621;28;20079;-78
2022/08/08 12:13:38;;;;;;;0.10;0.10;;;;;;;24.27;72.54;102521.59;10513258;28;20383;-78
2022/08/08 12:19:09;;;;;;;0.00;0.00;;;;;;;23.76;66.88;102527.97;10516681;28;20059;-78
2022/08/08 12:24:13;;;;;;;0.20;0.08;;;;;;;24.30;68.58;102521.59;10520808;28;20458;-78
2022/08/08 12:29:22;;;;;;;0.00;0.00;;;;;;;25.10;63.18;102524.53;10489837;28;20087;-78
2022/08/08 12:34:50;;;;;;;0.10;0.05;;;;;;;23.85;69.50;102523.56;10511121;28;20725;-77
2022/08/08 12:40:01;;;;;;;0.35;0.35;;;;;;;23.16;71.79;102528.03;10510088;28;20067;-78
2022/08/08 12:45:08;;;;;;;;;;;;;;;23.27;72.44;102526.34;10508514;28;20050;-78
2022/08/08 12:50:44;;;;;;;0.00;0.00;;;;;;;24.82;66.91;102520.38;10524410;28;19924;-78
2022/08/08 12:56:01;;;;;;;0.00;0.00;;;;;;;24.82;65.29;102524.78;10527101;28;20046;-77
2022/08/08 13:01:36;;;;;;;0.00;0.00;;;;;;;23.93;66.58;102529.69;10516859;28;20032;-78
2022/08/08 13:06:38;;;;;;;0.00;0.00;;;;;;;23.72;70.04;102523.56;10517543;28;20139;-78
2022/08/08 13:11:52;;;;;;;0.00;0.00;;;;;;;23.89;72.07;102522.63;10527029;28;20117;-78
2022/08/08 13:17:15;;;;;;;0.15;0.15;;;;;;;24.39;67.90;102521.53;10502474;28;20097;-78
2022/08/08 13:22:37;;;;;;;0.10;0.10;;;;;;;24.65;65.88;102517.84;10508083;28;20090;-78
2022/08/08 13:27:39;;;;;;;0.20;0.10;;;;;;;24.88;62.42;102514.19;10512344;28;20395;-78
2022/08/08 13:32:41;;;;;;;0.03;0.03;;;;;;;25.20;59.08;102507.75;10506055;28;20059;-78
2022/08/08 13:37:44;;;;;;;0.00;0.00;;;;;;;25.55;60.06;102498.59;10532002;28;20044;-78
2022/08/08 13:43:06;;;;;;;0.10;0.10;;;;;;;24.35;60.02;102501.38;10511024;28;20047;-78
2022/08/08 13:48:13;;;;;;;0.00;0.00;;;;;;;25.10;66.38;102485.84;10526571;28;20066;-77
2022/08/08 13:53:29;;;;;;;0.00;0.00;;;;;;;24.29;56.52;102496.16;10512917;28;20513;-79
2022/08/08 13:58:35;;;;;;;0.10;0.10;;;;;;;23.68;58.11;102485.00;10504500;28;20048;-77
2022/08/08 14:03:50;;;;;;;0.00;0.00;;;;;;;25.10;62.59;102479.72;10499654;28;20183;-77
2022/08/08 14:08:56;;;;;;;0.10;0.10;;;;;;;25.38;64.51;102471.50;10513153;28;20618;-77
2022/08/08 14:13:59;;;;;;;0.55;0.28;;;;;;;25.07;58.02;102477.97;10500185;28;20135;-78
2022/08/08 14:19:05;;;;;;;0.93;0.50;;;;;;;24.75;58.49;102465.09;10531750;28;20059;-78
2022/08/08 14:24:12;;;;;;;0.10;0.10;;;;;;;24.84;56.77;102475.53;10528147;28;20510;-78
2022/08/08 14:29:21;;;;;;;0.15;0.00;;;;;;;24.16;59.28;102473.41;10508609;28;20050;-78
2022/08/08 14:34:31;;;;;;;0.10;0.00;;;;;;;24.46;61.38;102463.56;10513999;28;20403;-78
2022/08/08 14:39:40;;;;;;;0.10;0.10;;;;;;;23.78;63.57;102472.69;10530351;28;20036;-78
2022/08/08 14:44:58;;;;;;;0.00;0.00;;;;;;;23.96;60.98;102469.13;10508837;28;20156;-77
2022/08/08 14:50:07;;;;;;;0.00;0.00;;;;;;;24.59;61.07;102470.47;10487066;28;20048;-78
2022/08/08 14:55:18;;;;;;;0.28;0.10;;;;;;;24.54;56.81;102472.25;10491774;28;20048;-79
2022/08/08 15:00:31;;;;;;;0.25;0.15;;;;;;;24.61;61.44;102467.81;10488426;28;20097;-78
2022/08/08 15:05:33;;;;;;;0.00;0.00;;;;;;;23.89;67.47;102464.75;10508210;28;20066;-78
2022/08/08 15:10:54;;;;;;;0.00;0.00;;;;;;;23.48;64.27;102473.69;10502092;28;20043;-78
2022/08/08 15:15:56;;;;;;;0.40;0.20;;;;;;;24.37;67.37;102468.00;10518624;28;20422;-79
2022/08/08 15:21:07;;;;;;;0.00;0.00;;;;;;;24.25;60.89;102460.16;10508425;28;20544;-78
2022/08/08 15:26:09;;;;;;;0.00;0.00;;;;;;;24.75;61.72;102467.75;10530466;28;20044;-78
2022/08/08 15:31:13;;;;;;;0.00;0.00;;;;;;;24.58;60.01;102458.19;10511961;28;20059;-78
2022/08/08 15:36:36;;;;;;;0.00;0.00;;;;;;;24.78;65.02;102465.06;10536141;28;20044;-78
2022/08/08 15:41:38;;;;;;;0.00;0.00;;;;;;;24.57;58.67;102466.09;10519669;28;20032;-79
2022/08/08 15:46:46;;;;;;;2.70;0.10;;;;;;;24.02;59.15;102468.22;10514128;28;20071;-77
2022/08/08 15:51:51;;;;;;;0.00;0.00;;;;;;;24.05;65.07;102462.94;10538975;28;20032;-78
2022/08/08 15:56:55;;;;;;;0.28;0.17;;;;;;;23.51;70.95;102465.78;10535865;28;20530;-78
2022/08/08 16:01:56;;;;;;;0.00;0.00;;;;;;;23.33;73.56;102457.09;10535925;28;20499;-78
2022/08/08 16:07:02;;;;;;;0.00;0.00;;;;;;;23.30;76.99;102457.06;10515741;28;20081;-78
2022/08/08 16:12:04;;;;;;;0.00;0.00;;;;;;;22.92;75.17;102463.25;10501015;28;20129;-78
2022/08/08 16:17:25;;;;;;;0.20;0.17;;;;;;;22.60;75.14;102458.91;10528223;28;20068;-77
2022/08/08 16:22:47;;;;;;;0.00;0.00;;;;;;;22.93;73.79;102459.75;10526941;28;20101;-78
2022/08/08 16:27:52;;;;;;;0.08;0.03;;;;;;;23.50;75.36;102458.75;10516113;28;20048;-78
2022/08/08 16:32:58;;;;;;;0.00;0.00;;;;;;;23.34;73.62;102458.84;10535085;28;20548;-78
2022/08/08 16:38:02;;;;;;;0.00;0.00;;;;;;;23.70;73.97;102456.94;10511602;28;20135;-78
2022/08/08 16:43:04;;;;;;;0.10;0.00;;;;;;;23.40;77.59;102458.81;10516562;28;20040;-78
2022/08/08 16:48:06;;;;;;;6.65;0.20;;;;;;;22.72;76.82;102461.50;10515728;28;20055;-78
2022/08/08 16:53:07;;;;;;;0.00;0.00;;;;;;;22.44;83.81;102458.88;10516259;28;20059;-78
2022/08/08 16:58:34;;;;;;;0.17;0.10;;;;;;;22.10;81.52;102464.03;10514567;28;20071;-77
2022/08/08 17:03:36;;;;;;;0.28;0.08;;;;;;;22.26;84.50;102464.06;10534472;28;20107;-78
2022/08/08 17:08:57;;;;;;;0.00;0.00;;;;;;;22.13;79.92;102460.53;10514735;28;20048;-78
2022/08/08 17:13:59;;;;;;;0.10;0.10;;;;;;;22.44;82.70;102458.88;10533666;28;20048;-78
2022/08/08 17:19:02;;;;;;;0.00;0.00;;;;;;;22.77;80.42;102467.63;10531197;28;20463;-78
2022/08/08 17:24:04;;;;;;;0.00;0.00;;;;;;;22.64;82.92;102464.13;10514706;28;20059;-78
2022/08/08 17:29:27;;;;;;;0.22;0.00;;;;;;;22.41;82.78;102469.38;10512941;28;20036;-78
2022/08/08 17:34:36;;;;;;;0.08;0.08;;;;;;;22.26;84.67;102474.56;10533553;28;20047;-78
2022/08/08 17:39:58;;;;;;;0.13;0.10;;;;;;;22.30;86.52;102471.09;10526543;28;20129;-78
2022/08/08 17:45:13;;;;;;;0.15;0.10;;;;;;;22.25;87.91;102478.06;10522898;28;20048;-78
2022/08/08 17:50:25;;;;;;;0.20;0.10;;;;;;;21.99;89.82;102476.25;10524713;28;20479;-78
2022/08/08 17:55:26;;;;;;;0.00;0.00;;;;;;;21.92;92.54;102487.59;10520511;28;20051;-78
2022/08/08 18:00:48;;;;;;;0.00;0.00;;;;;;;21.70;92.60;102490.13;10536809;28;20044;-78
2022/08/08 18:05:57;;;;;;;0.40;0.20;;;;;;;21.51;93.64;102495.25;10522968;28;20048;-78
2022/08/08 18:11:12;;;;;;;0.22;0.10;;;;;;;21.39;95.26;102500.44;10521925;28;20051;-78
2022/08/08 18:16:16;;;;;;;0.03;0.00;;;;;;;21.14;95.95;102510.72;10521598;28;20110;-78
2022/08/08 18:21:28;;;;;;;1.38;0.15;;;;;;;21.12;96.98;102511.59;10539645;28;20044;-78
2022/08/08 18:26:53;;;;;;;0.10;0.10;;;;;;;20.90;100.00;102517.53;10538196;28;20105;-78
2022/08/08 18:31:58;;;;;;;0.15;0.00;;;;;;;20.78;100.00;102514.81;10521093;28;20047;-77
2022/08/08 18:37:03;;;;;;;0.00;0.00;;;;;;;20.63;100.00;102509.41;10505083;28;20051;-77
2022/08/08 18:42:12;;;;;;;0.00;0.00;;;;;;;20.49;100.00;102515.38;10521050;28;20642;-78
2022/08/08 18:47:18;;;;;;;0.30;0.13;;;;;;;20.32;100.00;102527.41;10508483;28;20059;-77
2022/08/08 18:52:20;;;;;;;0.22;0.20;;;;;;;20.32;100.00;102530.00;10500625;28;20433;-76
2022/08/08 18:57:23;;;;;;;0.10;0.10;;;;;;;20.03;100.00;102546.25;10502957;28;20495;-75
2022/08/08 19:02:27;;;;;;;0.03;0.00;;;;;;;19.96;100.00;102550.50;10510892;28;20047;-76
2022/08/08 19:07:30;;;;;;;0.90;0.20;;;;;;;19.87;100.00;102564.34;10529789;28;20085;-79
2022/08/08 19:12:38;;;;;;;0.05;0.00;;;;;;;19.75;100.00;102574.63;10525685;28;20036;-79
2022/08/08 19:17:45;;;;;;;0.30;0.20;;;;;;;19.48;100.00;102578.56;10515203;28;20040;-78
2022/08/08 19:23:06;;;;;;;0.05;0.05;;;;;;;19.31;100.00;102581.81;10516657;28;20442;-78
2022/08/08 19:28:09;;;;;;;0.55;0.38;;;;;;;19.27;100.00;102586.97;10507391;28;20052;-78
2022/08/08 19:33:22;;;;;;;0.00;0.00;;;;;;;19.18;100.00;102595.50;10500665;28;20050;-79
2022/08/08 19:38:24;;;;;;;0.32;0.10;;;;;;;18.99;100.00;102595.19;10511787;28;20514;-79
2022/08/08 19:43:26;;;;;;;0.00;0.00;;;;;;;18.89;100.00;102595.84;10528807;28;20040;-79
2022/08/08 19:48:32;;;;;;;0.13;0.00;;;;;;;18.82;100.00;102600.09;10532726;28;20570;-79
2022/08/08 19:53:33;;;;;;;0.00;0.00;;;;;;;18.66;100.00;102611.94;10511622;28;20488;-78
2022/08/08 19:58:53;;;;;;;0.00;0.00;;;;;;;18.44;100.00;102609.75;10526836;28;20487;-78
2022/08/08 20:03:55;;;;;;;0.55;0.28;;;;;;;18.35;100.00;102620.91;10532352;28;20048;-78
2022/08/08 20:09:03;;;;;;;0.32;0.17;;;;;;;18.11;100.00;102627.34;10508678;28;20056;-78
2022/08/08 20:14:09;;;;;;;0.80;0.30;;;;;;;18.01;100.00;102626.25;10506907;28;20160;-78
2022/08/08 20:19:31;;;;;;;0.00;0.00;;;;;;;17.92;100.00;102626.00;10510821;28;20044;-79
2022/08/08 20:24:43;;;;;;;0.00;0.00;;;;;;;17.84;100.00;102632.78;10533232;28;20096;-78
2022/08/08 20:29:45;;;;;;;0.00;0.00;;;;;;;17.61;100.00;102635.72;10530953;28;20139;-78
2022/08/08 20:35:01;;;;;;;0.10;0.10;;;;;;;17.66;100.00;102639.34;10509767;28;20040;-78
2022/08/08 20:40:06;;;;;;;0.03;0.03;;;;;;;17.60;100.00;102641.78;10509868;28;20586;-78
2022/08/08 20:45:09;;;;;;;0.05;0.05;;;;;;;17.54;100.00;102655.53;10507036;28;20040;-78
2022/08/08 20:50:13;;;;;;;0.00;0.00;;;;;;;17.32;100.00;102648.03;10507806;28;20513;-78
2022/08/08 20:55:15;;;;;;;0.35;0.10;;;;;;;17.43;100.00;102651.78;10526203;28;20464;-77
2022/08/08 21:00:26;;;;;;;0.32;0.15;;;;;;;17.33;100.00;102653.25;10509564;28;20054;-78
2022/08/08 21:05:29;;;;;;;0.20;0.13;;;;;;;17.24;100.00;102653.91;10527351;28;20042;-77
2022/08/08 21:10:32;;;;;;;0.10;0.10;;;;;;;17.06;100.00;102659.53;10507340;28;20130;-77
2022/08/08 21:15:35;;;;;;;0.00;0.00;;;;;;;17.12;100.00;102659.69;10524348;28;20036;-79
2022/08/08 21:20:56;;;;;;;0.03;0.00;;;;;;;16.99;100.00;102665.41;10495519;28;20036;-79
2022/08/08 21:25:58;;;;;;;0.00;0.00;;;;;;;17.10;100.00;102660.47;10534826;28;20051;-79
2022/08/08 21:30:59;;;;;;;0.52;0.40;;;;;;;17.02;100.00;102660.25;10529076;28;20438;-78
2022/08/08 21:36:27;;;;;;;0.00;0.00;;;;;;;16.86;100.00;102663.28;10497107;28;20047;-79
2022/08/08 21:41:32;;;;;;;0.35;0.13;;;;;;;16.71;100.00;102659.41;10505910;28;20541;-78
2022/08/08 21:46:55;;;;;;;0.00;0.00;;;;;;;16.62;100.00;102665.19;10528478;28;20078;-78
2022/08/08 21:52:16;;;;;;;0.20;0.10;;;;;;;16.52;100.00;102677.91;10509053;28;20036;-78
2022/08/08 21:57:38;;;;;;;6.32;0.77;;;;;;;16.49;100.00;102676.97;10496775;28;20081;-78
2022/08/08 22:03:00;;;;;;;0.20;0.20;;;;;;;16.61;100.00;102675.56;10527213;28;20048;-79
2022/08/08 22:08:02;;;;;;;3.10;0.35;;;;;;;16.47;100.00;102683.84;10521322;28;20433;-79
2022/08/08 22:13:07;;;;;;;0.20;0.15;;;;;;;16.44;100.00;102681.16;10510882;28;20230;-77
2022/08/08 22:18:19;;;;;;;0.00;0.00;;;;;;;16.41;100.00;102686.28;10523242;28;20122;-78
2022/08/08 22:23:21;;;;;;;0.10;0.10;;;;;;;16.48;100.00;102693.44;10501014;28;20040;-77
2022/08/08 22:28:30;;;;;;;0.45;0.20;;;;;;;16.32;100.00;102693.78;10509380;28;20499;-79
2022/08/08 22:33:51;;;;;;;0.13;0.13;;;;;;;16.35;100.00;102693.88;10525574;28;20060;-79
2022/08/08 22:39:13;;;;;;;0.28;0.20;;;;;;;16.20;100.00;102696.00;10543647;28;20047;-78
2022/08/08 22:44:20;;;;;;;0.43;0.32;;;;;;;16.21;100.00;102703.88;10540026;28;20436;-78
2022/08/08 22:49:24;;;;;;;0.20;0.20;;;;;;;16.03;100.00;102717.16;10534299;28;20096;-78
2022/08/08 22:54:26;;;;;;;0.10;0.05;;;;;;;16.04;100.00;102715.44;10546111;28;20072;-78
2022/08/08 22:59:48;;;;;;;0.00;0.00;;;;;;;16.03;100.00;102711.97;10557159;28;20113;-79
2022/08/08 23:05:00;;;;;;;0.00;0.00;;;;;;;15.88;100.00;102724.47;10519050;28;20125;-78
2022/08/08 23:10:07;;;;;;;1.25;0.52;;;;;;;15.86;100.00;102720.09;10542956;28;20040;-77
2022/08/08 23:15:14;;;;;;;0.13;0.13;;;;;;;15.75;100.00;102726.59;10539886;28;20051;-78
2022/08/08 23:20:35;;;;;;;0.85;0.28;;;;;;;15.46;100.00;102731.69;10537998;28;20433;-77
2022/08/08 23:25:37;;;;;;;0.20;0.03;;;;;;;15.59;100.00;102729.53;10525150;28;20040;-76
2022/08/08 23:30:49;;;;;;;0.70;0.10;;;;;;;15.34;100.00;102741.66;10523334;28;20062;-76
2022/08/08 23:35:51;;;;;;;0.13;0.10;;;;;;;15.31;100.00;102737.25;10529956;28;20051;-77
2022/08/08 23:41:09;;;;;;;2.22;0.80;;;;;;;15.38;100.00;102735.72;10531229;28;20499;-77
2022/08/08 23:46:24;;;;;;;0.00;0.00;;;;;;;15.40;100.00;102741.88;10534183;28;20082;-77
2022/08/08 23:51:48;;;;;;;0.40;0.20;;;;;;;15.17;100.00;102748.84;10525222;28;20039;-76
2022/08/08 23:57:08;;;;;;;0.52;0.10;;;;;;;15.08;100.00;102744.19;10550234;28;20044;-77
